createdAt,value
2022-08-18T00:02:12.754Z,49.24
2022-08-18T00:04:49.022Z,49.23
2022-08-18T00:07:19.496Z,49.25
2022-08-18T00:09:47.925Z,49.54
2022-08-18T00:12:17.326Z,49.38
2022-08-18T00:14:45.856Z,49.46
2022-08-18T00:17:15.232Z,49.67
2022-08-18T00:19:46.238Z,49.66
2022-08-18T00:22:17.071Z,49.80
2022-08-18T00:24:48.497Z,49.98
2022-08-18T00:27:23.067Z,50.00
2022-08-18T00:29:52.087Z,49.90
2022-08-18T00:32:22.220Z,49.87
2022-08-18T00:34:50.254Z,50.05
2022-08-18T00:39:47.948Z,50.11
2022-08-18T00:42:29.123Z,50.03
2022-08-18T00:45:00.669Z,50.02
2022-08-18T00:47:42.378Z,50.11
2022-08-18T00:50:15.026Z,49.99
2022-08-18T00:52:45.173Z,50.17
2022-08-18T00:55:13.157Z,50.18
2022-08-18T00:57:42.837Z,50.04
2022-08-18T01:00:13.734Z,50.11
2022-08-18T01:02:44.014Z,50.17
2022-08-18T01:05:13.757Z,50.10
2022-08-18T01:07:44.322Z,50.02
2022-08-18T01:10:16.406Z,50.02
2022-08-18T01:12:46.911Z,50.20
2022-08-18T01:15:29.622Z,50.26
2022-08-18T01:18:17.535Z,50.30
2022-08-18T01:21:09.422Z,50.14
2022-08-18T01:23:38.791Z,50.13
2022-08-18T01:26:06.391Z,50.27
2022-08-18T01:28:35.422Z,50.08
2022-08-18T01:31:04.169Z,50.15
2022-08-18T01:33:33.585Z,50.26
2022-08-18T01:36:03.816Z,50.35
2022-08-18T01:38:32.572Z,50.39
2022-08-18T01:41:26.417Z,50.24
2022-08-18T01:43:49.977Z,50.38
2022-08-18T01:46:20.053Z,50.19
2022-08-18T01:48:48.332Z,50.20
2022-08-18T01:51:17.876Z,50.12
2022-08-18T01:53:46.255Z,50.19
2022-08-18T01:56:17.780Z,50.35
2022-08-18T01:58:47.744Z,50.40
2022-08-18T02:01:15.861Z,50.35
2022-08-18T02:03:45.886Z,50.51
2022-08-18T02:06:15.167Z,50.46
2022-08-18T02:08:49.872Z,50.43
2022-08-18T02:11:23.682Z,50.43
2022-08-18T02:16:19.871Z,50.48
2022-08-18T02:18:48.950Z,50.50
2022-08-18T02:21:19.382Z,50.88
2022-08-18T02:23:53.214Z,50.54
2022-08-18T02:26:23.385Z,50.87
2022-08-18T02:28:51.352Z,50.93
2022-08-18T02:31:20.376Z,50.86
2022-08-18T02:33:52.014Z,51.12
2022-08-18T02:36:20.712Z,51.07
2022-08-18T02:38:59.956Z,51.13
2022-08-18T02:41:30.160Z,51.15
2022-08-18T02:43:58.353Z,51.44
2022-08-18T02:46:29.722Z,51.40
2022-08-18T02:48:58.400Z,51.73
2022-08-18T02:51:26.534Z,51.25
2022-08-18T02:53:54.582Z,51.36
2022-08-18T02:56:40.677Z,51.58
2022-08-18T02:59:12.731Z,51.66
2022-08-18T03:01:41.874Z,51.53
2022-08-18T03:04:10.770Z,51.49
2022-08-18T03:06:39.462Z,51.60
2022-08-18T03:09:08.477Z,51.62
2022-08-18T03:11:36.523Z,51.86
2022-08-18T03:14:05.371Z,51.92
2022-08-18T03:16:35.286Z,51.82
2022-08-18T03:19:03.344Z,52.02
2022-08-18T03:21:32.317Z,51.92
2022-08-18T03:24:01.832Z,52.20
2022-08-18T03:26:31.235Z,52.30
2022-08-18T03:29:00.128Z,52.24
2022-08-18T03:31:30.098Z,52.38
2022-08-18T03:34:00.014Z,52.15
2022-08-18T03:36:29.022Z,52.56
2022-08-18T03:38:57.125Z,52.52
2022-08-18T03:41:56.909Z,52.54
2022-08-18T03:44:15.310Z,52.35
2022-08-18T03:46:43.505Z,52.48
2022-08-18T03:49:13.446Z,52.46
2022-08-18T03:51:44.185Z,52.56
2022-08-18T03:54:13.359Z,52.61
2022-08-18T03:56:42.085Z,52.72
2022-08-18T03:59:12.932Z,52.52
2022-08-18T04:01:42.473Z,52.83
2022-08-18T04:04:13.755Z,52.58
2022-08-18T04:06:42.504Z,52.62
2022-08-18T04:09:12.008Z,52.69
2022-08-18T04:11:43.319Z,52.56
2022-08-18T04:14:13.194Z,52.45
2022-08-18T04:16:41.358Z,52.51
2022-08-18T04:19:09.456Z,52.54
2022-08-18T04:21:39.559Z,52.52
2022-08-18T04:24:08.341Z,52.63
2022-08-18T04:26:39.222Z,52.61
2022-08-18T04:29:07.771Z,52.55
2022-08-18T04:31:35.788Z,52.47
2022-08-18T04:34:04.507Z,52.37
2022-08-18T04:36:34.193Z,52.51
2022-08-18T04:39:03.840Z,52.59
2022-08-18T04:41:31.849Z,52.66
2022-08-18T04:44:00.569Z,52.34
2022-08-18T04:46:28.849Z,52.35
2022-08-18T04:48:59.142Z,52.63
2022-08-18T04:52:31.039Z,52.60
2022-08-18T04:54:16.632Z,52.42
2022-08-18T04:56:45.115Z,52.32
2022-08-18T04:59:14.065Z,52.65
2022-08-18T05:01:43.343Z,52.46
2022-08-18T05:04:14.321Z,52.64
2022-08-18T05:06:42.642Z,52.57
2022-08-18T05:09:11.130Z,52.42
2022-08-18T05:11:40.569Z,52.74
2022-08-18T05:14:09.276Z,52.51
2022-08-18T05:16:42.189Z,52.58
2022-08-18T05:19:19.858Z,52.69
2022-08-18T05:21:50.900Z,52.43
2022-08-18T05:24:19.817Z,52.71
2022-08-18T05:26:49.213Z,52.51
2022-08-18T05:29:18.383Z,52.35
2022-08-18T05:31:47.387Z,52.51
2022-08-18T05:34:15.330Z,52.65
2022-08-18T05:36:57.880Z,52.49
2022-08-18T05:39:27.006Z,52.47
2022-08-18T05:41:59.644Z,52.33
2022-08-18T05:44:28.536Z,52.73
2022-08-18T05:46:57.330Z,52.52
2022-08-18T05:49:26.422Z,52.51
2022-08-18T05:51:56.418Z,52.60
2022-08-18T05:54:41.705Z,52.75
2022-08-18T05:57:13.500Z,52.71
2022-08-18T05:59:44.803Z,52.68
2022-08-18T06:02:17.522Z,52.66
2022-08-18T06:04:48.215Z,52.78
2022-08-18T06:07:18.258Z,52.67
2022-08-18T06:09:48.817Z,52.74
2022-08-18T06:12:23.742Z,52.85
2022-08-18T06:14:52.556Z,52.84
2022-08-18T06:17:44.844Z,52.84
2022-08-18T06:20:19.861Z,52.72
2022-08-18T06:22:55.273Z,52.94
2022-08-18T06:25:26.725Z,52.82
2022-08-18T06:27:58.697Z,52.77
2022-08-18T06:30:33.147Z,52.79
2022-08-18T06:33:14.594Z,52.74
2022-08-18T06:35:45.681Z,52.93
2022-08-18T06:38:45.260Z,52.90
2022-08-18T06:41:42.760Z,52.64
2022-08-18T06:44:10.334Z,52.56
2022-08-18T06:46:42.475Z,52.69
2022-08-18T06:49:11.744Z,52.75
2022-08-18T06:51:40.902Z,52.63
2022-08-18T06:54:09.756Z,52.79
2022-08-18T06:56:47.993Z,52.74
2022-08-18T06:59:23.681Z,52.71
2022-08-18T07:01:53.274Z,52.59
2022-08-18T07:04:45.021Z,52.56
2022-08-18T07:07:15.483Z,52.29
2022-08-18T07:09:43.540Z,52.49
2022-08-18T07:12:11.867Z,52.52
2022-08-18T07:14:48.526Z,52.68
2022-08-18T07:17:22.326Z,52.66
2022-08-18T07:20:12.093Z,52.60
2022-08-18T07:22:55.918Z,52.70
2022-08-18T07:25:25.907Z,52.52
2022-08-18T07:27:56.272Z,52.37
2022-08-18T07:30:32.394Z,52.42
2022-08-18T07:33:04.295Z,52.57
2022-08-18T07:35:39.206Z,52.43
2022-08-18T07:38:40.790Z,51.49
2022-08-18T07:41:00.457Z,51.19
2022-08-18T07:43:30.226Z,50.64
2022-08-18T07:46:04.110Z,50.41
2022-08-18T07:48:40.628Z,50.20
2022-08-18T07:51:13.674Z,49.42
2022-08-18T07:53:55.786Z,49.01
2022-08-18T07:56:30.673Z,48.45
2022-08-18T07:58:59.939Z,48.62
2022-08-18T08:01:35.099Z,48.35
2022-08-18T08:04:08.188Z,48.77
2022-08-18T08:06:40.377Z,48.47
2022-08-18T08:09:11.417Z,48.25
2022-08-18T08:11:46.211Z,48.47
2022-08-18T08:14:26.599Z,48.36
2022-08-18T08:17:00.926Z,48.41
2022-08-18T08:20:00.157Z,48.25
2022-08-18T08:22:32.683Z,48.45
2022-08-18T08:25:13.549Z,48.41
2022-08-18T08:28:00.427Z,48.42
2022-08-18T08:30:29.343Z,48.46
2022-08-18T08:33:04.758Z,48.70
2022-08-18T08:35:49.338Z,48.88
2022-08-18T08:38:40.321Z,48.71
2022-08-18T08:41:10.556Z,48.54
2022-08-18T08:43:41.248Z,48.64
2022-08-18T08:46:11.482Z,48.52
2022-08-18T08:48:44.346Z,48.54
2022-08-18T08:51:39.726Z,48.43
2022-08-18T08:54:10.667Z,48.70
2022-08-18T08:56:46.483Z,48.86
2022-08-18T08:59:15.716Z,48.79
2022-08-18T09:01:47.842Z,48.59
2022-08-18T09:04:30.096Z,48.51
2022-08-18T09:07:14.403Z,48.59
2022-08-18T09:09:53.435Z,48.52
2022-08-18T09:12:28.420Z,48.89
2022-08-18T09:15:10.914Z,48.59
2022-08-18T09:17:55.589Z,48.10
2022-08-18T09:20:35.201Z,47.89
2022-08-18T09:23:05.699Z,47.89
2022-08-18T09:25:44.979Z,47.55
2022-08-18T09:28:14.290Z,47.71
2022-08-18T09:33:36.085Z,47.20
2022-08-18T09:36:20.198Z,47.13
2022-08-18T09:39:08.533Z,46.68
2022-08-18T09:41:45.608Z,46.82
2022-08-18T09:44:55.952Z,46.63
2022-08-18T09:47:58.405Z,47.08
2022-08-18T09:51:26.521Z,46.31
2022-08-18T09:54:14.738Z,46.10
2022-08-18T09:57:20.560Z,45.96
2022-08-18T10:00:28.294Z,45.62
2022-08-18T10:03:13.667Z,45.15
2022-08-18T10:05:56.793Z,44.96
2022-08-18T10:08:56.063Z,44.53
2022-08-18T10:11:30.885Z,44.82
2022-08-18T10:14:10.087Z,44.78
2022-08-18T10:17:13.412Z,44.16
2022-08-18T10:19:39.704Z,44.32
2022-08-18T10:22:38.413Z,44.24
2022-08-18T10:25:22.128Z,43.96
2022-08-18T10:27:54.877Z,44.39
2022-08-18T10:34:23.355Z,44.03
2022-08-18T10:36:53.586Z,44.01
2022-08-18T10:39:23.246Z,43.67
2022-08-18T10:42:01.611Z,43.90
2022-08-18T10:44:31.651Z,44.05
2022-08-18T10:47:00.464Z,43.87
2022-08-18T10:49:29.323Z,43.92
2022-08-18T10:52:20.794Z,44.19
2022-08-18T10:55:03.909Z,44.25
2022-08-18T10:57:36.487Z,44.66
2022-08-18T11:00:09.686Z,44.74
2022-08-18T11:03:01.973Z,44.64
2022-08-18T11:08:20.879Z,45.11
2022-08-18T11:11:34.543Z,44.96
2022-08-18T11:13:49.862Z,45.06
2022-08-18T11:16:26.185Z,44.88
2022-08-18T11:18:58.266Z,44.83
2022-08-18T11:21:33.563Z,44.60
2022-08-18T11:24:10.066Z,44.55
2022-08-18T11:26:39.219Z,44.89
2022-08-18T11:29:29.216Z,44.08
2022-08-18T11:32:04.360Z,44.50
2022-08-18T11:34:41.168Z,44.48
2022-08-18T11:37:23.591Z,43.86
2022-08-18T11:39:52.557Z,44.15
2022-08-18T11:42:25.037Z,44.29
2022-08-18T11:44:55.424Z,45.03
2022-08-18T11:47:28.004Z,45.09
2022-08-18T11:50:00.294Z,45.38
2022-08-18T11:52:35.126Z,45.94
2022-08-18T11:55:14.755Z,46.25
2022-08-18T11:57:53.558Z,46.05
2022-08-18T12:00:57.212Z,46.38
2022-08-18T12:03:39.986Z,46.56
2022-08-18T12:06:19.944Z,46.54
2022-08-18T12:08:57.118Z,46.49
2022-08-18T12:11:28.828Z,46.79
2022-08-18T12:14:31.301Z,46.62
2022-08-18T12:16:56.002Z,46.77
2022-08-18T12:19:28.054Z,46.89
2022-08-18T12:21:57.473Z,47.13
2022-08-18T12:24:34.576Z,46.58
2022-08-18T12:27:20.478Z,46.53
2022-08-18T12:29:50.390Z,46.79
2022-08-18T12:32:49.012Z,46.86
2022-08-18T12:35:10.275Z,47.29
2022-08-18T12:40:27.954Z,48.23
2022-08-18T12:42:56.379Z,48.36
2022-08-18T12:45:27.262Z,48.79
2022-08-18T12:47:55.662Z,49.18
2022-08-18T12:50:31.076Z,49.14
2022-08-18T12:53:01.130Z,49.76
2022-08-18T12:55:29.889Z,49.85
2022-08-18T12:57:57.881Z,50.49
2022-08-18T13:00:27.989Z,50.79
2022-08-18T13:02:57.610Z,50.82
2022-08-18T13:05:29.694Z,51.07
2022-08-18T13:07:59.052Z,51.43
2022-08-18T13:10:44.847Z,51.62
2022-08-18T13:13:14.710Z,51.99
2022-08-18T13:15:55.419Z,52.21
2022-08-18T13:18:28.961Z,52.16
2022-08-18T13:20:58.926Z,51.82
2022-08-18T13:23:27.643Z,52.00
2022-08-18T13:25:55.905Z,52.30
2022-08-18T13:28:30.646Z,52.10
2022-08-18T13:31:01.850Z,52.09
2022-08-18T13:33:34.505Z,52.45
2022-08-18T13:36:10.944Z,52.32
2022-08-18T13:38:40.484Z,52.65
2022-08-18T13:41:15.836Z,52.52
2022-08-18T13:43:47.887Z,52.57
2022-08-18T13:46:18.475Z,52.67
2022-08-18T13:48:47.768Z,52.46
2022-08-18T13:51:19.296Z,52.09
2022-08-18T13:53:58.991Z,52.63
2022-08-18T13:56:34.760Z,52.44
2022-08-18T13:59:05.071Z,52.62
2022-08-18T14:01:44.266Z,52.60
2022-08-18T14:04:20.454Z,52.84
2022-08-18T14:06:57.162Z,53.20
2022-08-18T14:09:36.034Z,53.29
2022-08-18T14:12:07.132Z,53.65
2022-08-18T14:14:44.160Z,53.62
2022-08-18T14:17:12.561Z,53.95
2022-08-18T14:19:58.016Z,53.87
2022-08-18T14:22:45.081Z,54.26
2022-08-18T14:25:30.462Z,54.24
2022-08-18T14:27:59.093Z,54.20
2022-08-18T14:30:32.253Z,54.56
2022-08-18T14:33:00.470Z,54.17
2022-08-18T14:36:03.641Z,54.42
2022-08-18T14:38:18.890Z,54.50
2022-08-18T14:40:49.137Z,54.33
2022-08-18T14:43:18.558Z,54.51
2022-08-18T14:45:48.877Z,54.15
2022-08-18T14:48:17.655Z,54.21
2022-08-18T14:50:49.316Z,54.26
2022-08-18T14:53:20.188Z,54.26
2022-08-18T14:55:52.011Z,54.12
2022-08-18T14:58:20.208Z,54.46
2022-08-18T15:00:53.294Z,54.85
2022-08-18T15:03:28.236Z,55.31
2022-08-18T15:05:59.084Z,55.02
2022-08-18T15:08:28.853Z,55.01
2022-08-18T15:10:57.436Z,54.93
2022-08-18T15:13:26.587Z,55.11
2022-08-18T15:15:55.925Z,54.85
2022-08-18T15:18:31.297Z,54.86
2022-08-18T15:21:19.462Z,55.16
2022-08-18T15:24:21.311Z,55.00
2022-08-18T15:26:51.657Z,55.17
2022-08-18T15:29:27.765Z,55.34
2022-08-18T15:32:02.271Z,54.85
2022-08-18T15:34:47.381Z,55.01
2022-08-18T15:37:22.208Z,54.94
2022-08-18T15:40:02.473Z,54.29
2022-08-18T15:42:30.880Z,54.40
2022-08-18T15:45:11.985Z,54.76
2022-08-18T15:47:42.071Z,54.73
2022-08-18T15:50:25.634Z,54.83
2022-08-18T15:52:56.150Z,54.67
2022-08-18T15:55:26.490Z,54.27
2022-08-18T15:57:57.993Z,54.61
2022-08-18T16:00:27.314Z,54.78
2022-08-18T16:02:58.691Z,54.66
2022-08-18T16:05:29.121Z,54.56
2022-08-18T16:07:58.836Z,54.96
2022-08-18T16:10:32.285Z,54.90
2022-08-18T16:13:01.694Z,55.23
2022-08-18T16:15:30.894Z,55.24
2022-08-18T16:17:59.713Z,55.32
2022-08-18T16:20:29.397Z,55.78
2022-08-18T16:22:58.598Z,55.15
2022-08-18T16:25:28.030Z,54.83
2022-08-18T16:27:56.108Z,55.20
2022-08-18T16:30:25.061Z,54.71
2022-08-18T16:32:53.448Z,54.65
2022-08-18T16:35:21.846Z,54.48
2022-08-18T16:37:50.301Z,54.51
2022-08-18T16:40:19.231Z,54.02
2022-08-18T16:42:53.895Z,54.06
2022-08-18T16:45:22.542Z,53.84
2022-08-18T16:47:50.548Z,54.01
2022-08-18T16:50:19.384Z,54.05
2022-08-18T16:52:47.534Z,54.72
2022-08-18T16:55:15.669Z,54.39
2022-08-18T16:58:01.825Z,54.42
2022-08-18T17:00:54.460Z,54.53
2022-08-18T17:03:40.885Z,54.57
2022-08-18T17:06:10.918Z,55.10
2022-08-18T17:08:39.163Z,54.55
2022-08-18T17:11:09.488Z,55.11
2022-08-18T17:13:37.924Z,55.03
2022-08-18T17:16:07.750Z,55.27
2022-08-18T17:18:36.164Z,54.99
2022-08-18T17:21:05.047Z,55.12
2022-08-18T17:23:33.032Z,55.32
2022-08-18T17:26:02.653Z,55.35
2022-08-18T17:28:35.097Z,55.65
2022-08-18T17:31:03.547Z,55.60
2022-08-18T17:33:33.989Z,55.71
2022-08-18T17:36:05.028Z,55.54
2022-08-18T17:38:36.873Z,55.88
2022-08-18T17:41:05.081Z,55.80
2022-08-18T17:43:34.038Z,55.91
2022-08-18T17:46:04.151Z,56.16
2022-08-18T17:48:35.213Z,56.02
2022-08-18T17:51:22.226Z,56.08
2022-08-18T17:53:50.244Z,56.29
2022-08-18T17:56:19.754Z,56.23
2022-08-18T17:58:53.280Z,56.44
2022-08-18T18:01:21.339Z,56.38
2022-08-18T18:03:51.688Z,56.65
2022-08-18T18:06:31.789Z,56.48
2022-08-18T18:09:01.208Z,56.83
2022-08-18T18:11:32.392Z,56.68
2022-08-18T18:14:01.193Z,56.92
2022-08-18T18:16:35.118Z,56.79
2022-08-18T18:19:07.628Z,56.93
2022-08-18T18:22:00.383Z,57.04
2022-08-18T18:24:29.925Z,57.03
2022-08-18T18:26:58.346Z,57.10
2022-08-18T18:29:32.417Z,57.40
2022-08-18T18:32:03.545Z,57.42
2022-08-18T18:34:39.677Z,57.27
2022-08-18T18:37:23.712Z,57.46
2022-08-18T18:39:56.343Z,57.41
2022-08-18T18:42:25.998Z,57.80
2022-08-18T18:44:55.368Z,57.48
2022-08-18T18:47:37.432Z,57.77
2022-08-18T18:50:09.103Z,57.47
2022-08-18T18:52:42.257Z,57.62
2022-08-18T18:55:14.958Z,57.77
2022-08-18T18:57:46.077Z,57.73
2022-08-18T19:00:20.607Z,57.67
2022-08-18T19:02:55.082Z,57.80
2022-08-18T19:05:29.329Z,57.95
2022-08-18T19:08:03.930Z,58.17
2022-08-18T19:10:36.059Z,58.42
2022-08-18T19:13:06.037Z,58.49
2022-08-18T19:15:38.106Z,58.52
2022-08-18T19:18:15.793Z,58.34
2022-08-18T19:22:02.120Z,58.65
2022-08-18T19:23:45.236Z,58.89
2022-08-18T19:26:15.607Z,58.87
2022-08-18T19:29:12.409Z,58.86
2022-08-18T19:31:36.343Z,58.90
2022-08-18T19:34:08.464Z,58.70
2022-08-18T19:36:43.889Z,58.91
2022-08-18T19:39:14.200Z,59.05
2022-08-18T19:41:47.173Z,59.07
2022-08-18T19:44:38.121Z,59.14
2022-08-18T19:47:09.909Z,59.14
2022-08-18T19:49:41.902Z,59.45
2022-08-18T19:52:46.709Z,59.45
2022-08-18T19:55:19.943Z,59.54
2022-08-18T19:58:10.638Z,59.61
2022-08-18T20:00:42.661Z,60.01
2022-08-18T20:03:48.705Z,59.94
2022-08-18T20:06:35.903Z,59.86
2022-08-18T20:09:21.321Z,59.87
2022-08-18T20:11:57.289Z,60.09
2022-08-18T20:14:25.685Z,60.45
2022-08-18T20:17:14.527Z,60.41
2022-08-18T20:19:45.746Z,60.69
2022-08-18T20:22:29.326Z,60.58
2022-08-18T20:25:06.152Z,60.87
2022-08-18T20:27:36.545Z,60.80
2022-08-18T20:30:32.858Z,60.80
2022-08-18T20:33:30.194Z,60.63
2022-08-18T20:36:07.117Z,60.70
2022-08-18T20:38:37.009Z,60.70
2022-08-18T20:41:39.088Z,60.61
2022-08-18T20:44:37.989Z,60.90
2022-08-18T20:47:14.437Z,60.89
2022-08-18T20:49:50.417Z,61.01
2022-08-18T20:52:24.353Z,60.92
2022-08-18T20:55:03.214Z,60.88
2022-08-18T20:57:41.309Z,60.96
2022-08-18T21:00:15.728Z,61.08
2022-08-18T21:02:50.251Z,61.04
2022-08-18T21:05:27.796Z,61.12
2022-08-18T21:08:02.372Z,61.16
2022-08-18T21:10:31.096Z,61.50
2022-08-18T21:13:01.742Z,61.47
2022-08-18T21:15:30.831Z,61.52
2022-08-18T21:18:00.216Z,61.68
2022-08-18T21:20:28.326Z,61.53
2022-08-18T21:23:04.422Z,61.49
2022-08-18T21:25:33.680Z,61.63
2022-08-18T21:28:04.025Z,61.38
2022-08-18T21:30:32.982Z,61.66
2022-08-18T21:33:02.120Z,61.81
2022-08-18T21:35:31.095Z,61.74
2022-08-18T21:38:00.795Z,61.94
2022-08-18T21:40:30.964Z,61.98
2022-08-18T21:42:59.484Z,62.02
2022-08-18T21:45:29.348Z,62.10
2022-08-18T21:47:58.550Z,62.28
2022-08-18T21:50:27.472Z,62.38
2022-08-18T21:52:56.415Z,62.36
2022-08-18T21:55:30.284Z,62.36
2022-08-18T21:58:08.581Z,62.39
2022-08-18T22:00:39.070Z,62.61
2022-08-18T22:03:25.740Z,62.45
2022-08-18T22:06:00.840Z,62.50
2022-08-18T22:08:30.053Z,62.66
2022-08-18T22:11:59.809Z,62.53
2022-08-18T22:14:36.260Z,62.53
2022-08-18T22:17:33.048Z,62.55
2022-08-18T22:20:38.480Z,62.38
2022-08-18T22:23:28.024Z,62.57
2022-08-18T22:26:06.537Z,62.50
2022-08-18T22:28:34.683Z,62.47
2022-08-18T22:31:02.720Z,62.58
2022-08-18T22:33:32.248Z,62.54
2022-08-18T22:36:00.408Z,62.65
2022-08-18T22:38:28.533Z,62.38
2022-08-18T22:40:56.847Z,62.94
2022-08-18T22:43:24.888Z,62.96
2022-08-18T22:45:52.934Z,63.09
2022-08-18T22:48:20.967Z,63.10
2022-08-18T22:50:51.489Z,63.11
2022-08-18T22:53:19.509Z,63.28
2022-08-18T22:55:47.532Z,63.34
2022-08-18T22:58:16.000Z,63.54
2022-08-18T23:00:49.668Z,63.49
2022-08-18T23:03:17.774Z,63.57
2022-08-18T23:05:45.989Z,63.35
2022-08-18T23:08:15.450Z,63.21
2022-08-18T23:10:43.608Z,63.57
2022-08-18T23:13:11.727Z,63.50
2022-08-18T23:15:46.749Z,63.39
2022-08-18T23:18:19.865Z,63.54
2022-08-18T23:20:49.080Z,63.59
2022-08-18T23:23:19.101Z,63.49
2022-08-18T23:25:47.724Z,63.54
2022-08-18T23:28:15.790Z,63.52
2022-08-18T23:30:44.623Z,63.54
2022-08-18T23:33:13.711Z,63.47
2022-08-18T23:35:41.996Z,63.41
2022-08-18T23:38:10.292Z,63.70
2022-08-18T23:40:40.270Z,63.59
2022-08-18T23:43:08.266Z,63.56
2022-08-18T23:45:36.331Z,63.68
2022-08-18T23:48:05.940Z,63.65
2022-08-18T23:50:34.222Z,63.70
2022-08-18T23:53:02.855Z,63.66
2022-08-18T23:55:31.047Z,63.78
2022-08-18T23:58:00.365Z,63.87
